Decoded Metar for KMSV (MONTICELLO in NY, USA) (IATA:MSV) | Meteo·Mobile Aviation Weather
aviador You're here:

KMSV Decoded Metar

MONTICELLO in NY, USA
Report Time2018-09-23 11:56:00
UTC Time2018-09-23 12:07:16
Flight Rules vfr VFR
Wind020° at 03 kt
W.Decomp.*RWY 33: 1.4 kt HW 2.6 kt RCW
W.Rank020° ranks 33
Current wind is below 020° avg. (4.3)
Visibility9999 m
Phenomena:N/A
Clouds:N/A
CeilingNone
Temp07°C (ISA -5)
Dew Point07°C (100% RH)
AAT5.2°C
QNH1025 hPa
Density Alt515 ft
Elevation1,404 ft
Report Wrong Elevation
Raw Report
KMSV 231156Z AUTO 02003KT 10SM CLR 07/07 A3027 RMK AO2 SLP255
T00720072 10089 20072 53005=

Extra information for KMSV:More info

Metar Taf Metar & Taf Last 4 Metars F.Rules Stats Wind Profile Meteogram Temp Stats Airport Information Weather charts Add Link Nearby VenuesMetar ALERT Operation Metar Decoded Social comments

AIRNAV info for KMSV